createdAt,value
2022-12-29T00:01:02.948Z,23.85
2022-12-29T00:03:30.599Z,24.85
2022-12-29T00:05:59.463Z,24.05
2022-12-29T00:08:40.786Z,25.65
2022-12-29T00:11:13.594Z,24.98
2022-12-29T00:14:00.633Z,23.13
2022-12-29T00:16:29.367Z,24.95
2022-12-29T00:18:57.083Z,22.80
2022-12-29T00:21:44.333Z,22.75
2022-12-29T00:24:27.943Z,27.60
2022-12-29T00:27:22.729Z,26.15
2022-12-29T00:30:09.058Z,25.00
2022-12-29T00:32:55.323Z,23.35
2022-12-29T00:35:34.606Z,28.50
2022-12-29T00:38:24.679Z,23.38
2022-12-29T00:41:10.663Z,23.13
2022-12-29T00:43:56.707Z,23.38
2022-12-29T00:46:24.150Z,26.90
2022-12-29T00:49:09.931Z,22.27
2022-12-29T00:51:37.506Z,23.85
2022-12-29T00:54:04.935Z,24.77
2022-12-29T00:56:32.390Z,26.77
2022-12-29T00:59:07.552Z,25.60
2022-12-29T01:01:36.048Z,23.05
2022-12-29T01:04:04.959Z,25.55
2022-12-29T01:06:33.601Z,22.67
2022-12-29T01:09:19.721Z,26.50
2022-12-29T01:11:47.163Z,25.65
2022-12-29T01:14:14.928Z,25.42
2022-12-29T01:16:42.445Z,23.77
2022-12-29T01:19:10.410Z,26.23
2022-12-29T01:21:37.934Z,24.35
2022-12-29T01:24:05.519Z,23.95
2022-12-29T01:26:32.963Z,23.83
2022-12-29T01:29:00.335Z,23.23
2022-12-29T01:31:27.886Z,24.00
2022-12-29T01:33:55.400Z,22.02
2022-12-29T01:36:22.832Z,23.60
2022-12-29T01:38:50.161Z,21.67
2022-12-29T01:41:18.375Z,22.08
2022-12-29T01:43:55.103Z,21.42
2022-12-29T01:46:30.610Z,23.10
2022-12-29T01:49:20.167Z,23.15
2022-12-29T01:52:06.013Z,20.67
2022-12-29T01:54:42.297Z,18.80
2022-12-29T01:57:13.492Z,19.33
2022-12-29T01:59:47.027Z,20.48
2022-12-29T02:02:15.083Z,18.47
2022-12-29T02:04:47.377Z,20.17
2022-12-29T02:07:20.636Z,20.55
2022-12-29T02:09:49.808Z,19.63
2022-12-29T02:12:22.615Z,17.70
2022-12-29T02:14:55.186Z,19.92
2022-12-29T02:17:32.331Z,18.85
2022-12-29T02:20:12.843Z,17.70
2022-12-29T02:22:58.157Z,18.50
2022-12-29T02:26:00.532Z,21.15
2022-12-29T02:29:05.477Z,22.50
2022-12-29T02:31:38.909Z,20.35
2022-12-29T02:34:37.176Z,23.02
2022-12-29T02:37:23.340Z,21.98
2022-12-29T02:40:23.355Z,21.05
2022-12-29T02:43:02.791Z,25.38
2022-12-29T02:46:02.426Z,20.10
2022-12-29T02:48:42.595Z,23.13
2022-12-29T02:51:21.010Z,22.30
2022-12-29T02:54:07.540Z,26.35
2022-12-29T02:56:34.990Z,26.03
2022-12-29T02:59:03.308Z,25.67
2022-12-29T03:02:06.396Z,26.73
2022-12-29T03:05:03.466Z,27.20
2022-12-29T03:08:07.608Z,25.92
2022-12-29T03:11:01.599Z,25.63
2022-12-29T03:14:09.132Z,30.50
2022-12-29T03:16:50.828Z,24.65
2022-12-29T03:19:21.144Z,27.07
2022-12-29T03:22:14.695Z,29.70
2022-12-29T03:24:49.030Z,29.98
2022-12-29T03:27:30.612Z,28.17
2022-12-29T03:30:04.581Z,30.38
2022-12-29T03:32:41.154Z,29.73
2022-12-29T03:35:12.347Z,32.13
2022-12-29T03:37:44.565Z,27.25
2022-12-29T03:40:12.665Z,31.65
2022-12-29T03:42:41.340Z,29.98
2022-12-29T03:45:10.376Z,29.30
2022-12-29T03:47:38.455Z,30.23
2022-12-29T03:50:07.250Z,30.33
2022-12-29T03:52:38.373Z,28.85
2022-12-29T03:55:07.607Z,32.63
2022-12-29T03:57:35.010Z,26.48
2022-12-29T04:00:07.837Z,29.75
2022-12-29T04:02:43.195Z,25.00
2022-12-29T04:05:15.211Z,25.70
2022-12-29T04:07:43.074Z,23.52
2022-12-29T04:10:10.459Z,24.20
2022-12-29T04:12:38.748Z,21.88
2022-12-29T04:15:07.103Z,22.60
2022-12-29T04:17:34.800Z,21.57
2022-12-29T04:20:22.534Z,22.70
2022-12-29T04:22:50.350Z,20.45
2022-12-29T04:25:17.956Z,21.93
2022-12-29T04:27:46.118Z,20.20
2022-12-29T04:30:43.732Z,23.48
2022-12-29T04:33:33.733Z,22.83
2022-12-29T04:36:02.545Z,21.70
2022-12-29T04:38:30.058Z,23.35
2022-12-29T04:41:01.304Z,23.30
2022-12-29T04:43:29.327Z,21.48
2022-12-29T04:46:29.936Z,26.60
2022-12-29T04:49:05.527Z,23.23
2022-12-29T04:51:51.476Z,20.75
2022-12-29T04:54:19.574Z,22.92
2022-12-29T04:56:54.069Z,22.02
2022-12-29T04:59:21.493Z,23.27
2022-12-29T05:01:51.416Z,22.73
2022-12-29T05:04:18.913Z,22.75
2022-12-29T05:06:46.359Z,20.73
2022-12-29T05:09:13.844Z,23.73
2022-12-29T05:11:41.842Z,20.17
2022-12-29T05:14:10.650Z,20.27
2022-12-29T05:16:38.781Z,18.58
2022-12-29T05:19:06.724Z,22.75
2022-12-29T05:21:35.159Z,18.80
2022-12-29T05:24:02.877Z,18.60
2022-12-29T05:26:30.500Z,19.73
2022-12-29T05:29:07.777Z,17.98
2022-12-29T05:31:36.718Z,16.70
2022-12-29T05:34:05.571Z,16.85
2022-12-29T05:36:37.719Z,17.00
2022-12-29T05:39:08.703Z,18.80
2022-12-29T05:41:36.889Z,15.77
2022-12-29T05:44:27.429Z,15.80
2022-12-29T05:47:13.542Z,16.55
2022-12-29T05:50:02.659Z,16.25
2022-12-29T05:52:39.409Z,14.05
2022-12-29T05:55:07.756Z,16.80
2022-12-29T05:57:36.895Z,16.27
2022-12-29T06:00:11.067Z,16.00
2022-12-29T06:02:46.951Z,15.32
2022-12-29T06:05:16.403Z,13.10
2022-12-29T06:07:45.817Z,15.20
2022-12-29T06:10:15.700Z,16.53
2022-12-29T06:12:48.013Z,15.57
2022-12-29T06:15:15.930Z,13.35
2022-12-29T06:17:44.996Z,14.60
2022-12-29T06:20:12.395Z,15.43
2022-12-29T06:22:40.043Z,16.30
2022-12-29T06:25:08.655Z,13.48
2022-12-29T06:27:36.561Z,17.73
2022-12-29T06:30:04.579Z,13.35
2022-12-29T06:32:31.981Z,16.60
2022-12-29T06:35:07.257Z,16.38
2022-12-29T06:37:39.554Z,14.52
2022-12-29T06:40:08.272Z,15.23
2022-12-29T06:42:54.872Z,18.35
2022-12-29T06:45:41.383Z,16.17
2022-12-29T06:48:09.037Z,16.27
2022-12-29T06:50:36.614Z,17.67
2022-12-29T06:53:04.547Z,15.70
2022-12-29T06:55:32.244Z,15.65
2022-12-29T06:57:59.703Z,15.63
2022-12-29T07:00:28.176Z,16.73
2022-12-29T07:02:59.061Z,19.10
2022-12-29T07:05:28.675Z,17.40
2022-12-29T07:07:56.610Z,15.98
2022-12-29T07:10:24.275Z,16.67
2022-12-29T07:12:51.706Z,18.75
2022-12-29T07:15:19.240Z,18.13
2022-12-29T07:17:46.577Z,15.13
2022-12-29T07:20:13.864Z,18.33
2022-12-29T07:22:41.245Z,15.40
2022-12-29T07:25:09.275Z,17.30
2022-12-29T07:27:36.711Z,16.73
2022-12-29T07:30:04.607Z,16.33
2022-12-29T07:32:35.548Z,16.33
2022-12-29T07:35:03.315Z,15.40
2022-12-29T07:37:30.703Z,17.77
2022-12-29T07:39:58.256Z,18.58
2022-12-29T07:42:25.747Z,17.50
2022-12-29T07:44:53.878Z,16.83
2022-12-29T07:47:51.562Z,16.25
2022-12-29T07:50:19.164Z,16.77
2022-12-29T07:52:48.063Z,17.77
2022-12-29T07:55:16.907Z,19.60
2022-12-29T07:57:44.396Z,19.80
2022-12-29T08:00:12.272Z,16.90
2022-12-29T08:02:40.411Z,17.20
2022-12-29T08:05:08.130Z,19.73
2022-12-29T08:07:35.405Z,16.55
2022-12-29T08:10:02.871Z,18.48
2022-12-29T08:12:30.266Z,17.80
2022-12-29T08:14:57.646Z,19.13
2022-12-29T08:17:24.970Z,17.00
2022-12-29T08:19:52.334Z,17.30
2022-12-29T08:22:19.657Z,17.48
2022-12-29T08:24:47.019Z,17.00
2022-12-29T08:27:20.496Z,17.45
2022-12-29T08:29:49.096Z,20.15
2022-12-29T08:32:17.536Z,16.43
2022-12-29T08:34:44.999Z,17.77
2022-12-29T08:37:12.596Z,19.85
2022-12-29T08:39:39.921Z,15.10
2022-12-29T08:42:07.351Z,16.95
2022-12-29T08:44:34.761Z,21.65
2022-12-29T08:47:02.094Z,17.90
2022-12-29T08:49:29.434Z,19.55
2022-12-29T08:51:56.796Z,18.40
2022-12-29T08:54:24.228Z,19.58
2022-12-29T08:56:51.757Z,18.83
2022-12-29T08:59:19.743Z,19.30
2022-12-29T09:01:48.867Z,18.30
2022-12-29T09:04:17.628Z,21.27
2022-12-29T09:06:46.637Z,16.70
2022-12-29T09:09:14.499Z,21.63
2022-12-29T09:11:43.003Z,20.95
2022-12-29T09:14:10.379Z,22.60
2022-12-29T09:16:38.026Z,19.00
2022-12-29T09:19:05.793Z,22.08
2022-12-29T09:21:33.271Z,22.00
2022-12-29T09:24:00.649Z,17.92
2022-12-29T09:26:28.001Z,19.67
2022-12-29T09:28:55.401Z,24.42
2022-12-29T09:31:23.243Z,17.80
2022-12-29T09:33:50.718Z,18.92
2022-12-29T09:36:18.086Z,19.83
2022-12-29T09:38:45.462Z,16.67
2022-12-29T09:41:33.516Z,21.05
2022-12-29T09:44:24.488Z,20.53
2022-12-29T09:46:54.838Z,19.83
2022-12-29T09:49:25.471Z,22.35
2022-12-29T09:52:01.361Z,23.45
2022-12-29T09:54:36.134Z,22.70
2022-12-29T09:57:04.091Z,32.05
2022-12-29T09:59:42.129Z,26.27
2022-12-29T10:02:30.303Z,29.63
2022-12-29T10:04:58.062Z,26.75
2022-12-29T10:07:34.451Z,25.58
2022-12-29T10:10:04.784Z,29.27
2022-12-29T10:12:58.832Z,27.98
2022-12-29T10:15:41.529Z,26.90
2022-12-29T10:18:31.988Z,23.33
2022-12-29T10:21:28.506Z,25.75
2022-12-29T10:23:57.178Z,24.58
2022-12-29T10:26:29.491Z,23.70
2022-12-29T10:29:17.634Z,24.60
2022-12-29T10:31:50.272Z,25.83
2022-12-29T10:34:28.475Z,26.48
2022-12-29T10:37:01.356Z,25.00
2022-12-29T10:39:41.893Z,27.67
2022-12-29T10:42:29.910Z,28.83
2022-12-29T10:44:58.456Z,30.05
2022-12-29T10:47:29.764Z,28.13
2022-12-29T10:49:59.416Z,28.98
2022-12-29T10:52:29.545Z,29.75
2022-12-29T10:55:04.250Z,34.60
2022-12-29T10:57:41.697Z,33.78
2022-12-29T11:00:22.543Z,36.33
2022-12-29T11:03:43.562Z,37.00
2022-12-29T11:06:21.058Z,39.13
2022-12-29T11:09:02.175Z,37.42
2022-12-29T11:11:35.569Z,40.80
2022-12-29T11:14:14.519Z,42.03
2022-12-29T11:16:45.098Z,39.63
2022-12-29T11:19:24.501Z,42.40
2022-12-29T11:21:52.435Z,45.33
2022-12-29T11:24:24.690Z,40.40
2022-12-29T11:26:58.204Z,40.97
2022-12-29T11:29:37.901Z,43.65
2022-12-29T11:32:26.106Z,50.50
2022-12-29T11:34:56.716Z,46.20
2022-12-29T11:37:34.845Z,49.17
2022-12-29T11:40:09.229Z,51.40
2022-12-29T11:42:40.643Z,48.13
2022-12-29T11:45:16.663Z,51.92
2022-12-29T11:47:49.897Z,51.50
2022-12-29T11:50:28.740Z,49.67
2022-12-29T11:53:01.327Z,56.05
2022-12-29T11:55:30.359Z,53.75
2022-12-29T11:58:02.519Z,49.07
2022-12-29T12:00:33.289Z,51.10
2022-12-29T12:03:08.633Z,46.37
2022-12-29T12:05:55.970Z,43.97
2022-12-29T12:08:46.318Z,49.75
2022-12-29T12:11:21.587Z,46.88
2022-12-29T12:13:49.084Z,48.53
2022-12-29T12:16:21.615Z,48.17
2022-12-29T12:18:57.906Z,47.28
2022-12-29T12:21:45.995Z,49.88
2022-12-29T12:24:46.152Z,40.83
2022-12-29T12:27:21.502Z,44.92
2022-12-29T12:30:05.348Z,45.15
2022-12-29T12:33:03.971Z,38.80
2022-12-29T12:36:02.127Z,41.78
2022-12-29T12:38:41.999Z,41.58
2022-12-29T12:41:25.068Z,46.13
2022-12-29T12:44:21.956Z,42.53
2022-12-29T12:46:54.890Z,39.67
2022-12-29T12:49:56.627Z,45.65
2022-12-29T12:52:35.613Z,43.28
2022-12-29T12:55:13.804Z,42.40
2022-12-29T12:57:49.877Z,43.93
2022-12-29T13:00:20.128Z,43.58
2022-12-29T13:03:14.350Z,42.85
2022-12-29T13:06:19.318Z,42.03
2022-12-29T13:08:55.481Z,44.55
2022-12-29T13:11:44.633Z,46.20
2022-12-29T13:14:18.016Z,43.28
2022-12-29T13:17:01.267Z,41.05
2022-12-29T13:19:42.120Z,40.30
2022-12-29T13:22:21.925Z,40.75
2022-12-29T13:25:22.540Z,42.93
2022-12-29T13:27:58.520Z,43.03
2022-12-29T13:30:55.247Z,45.90
2022-12-29T13:33:44.068Z,42.77
2022-12-29T13:36:28.037Z,42.80
2022-12-29T13:39:19.060Z,43.65
2022-12-29T13:41:56.220Z,50.10
2022-12-29T13:44:36.356Z,45.00
2022-12-29T13:47:26.221Z,45.95
2022-12-29T13:49:54.503Z,43.00
2022-12-29T13:52:33.305Z,44.95
2022-12-29T13:55:06.655Z,39.95
2022-12-29T13:57:43.495Z,38.70
2022-12-29T14:00:22.866Z,42.20
2022-12-29T14:03:30.648Z,42.55
2022-12-29T14:06:28.526Z,42.17
2022-12-29T14:09:07.381Z,45.53
2022-12-29T14:11:40.822Z,43.83
2022-12-29T14:14:23.883Z,41.87
2022-12-29T14:16:52.393Z,42.45
2022-12-29T14:19:28.075Z,48.35
2022-12-29T14:21:57.885Z,43.63
2022-12-29T14:24:37.276Z,44.90
2022-12-29T14:27:10.820Z,44.38
2022-12-29T14:29:41.237Z,44.53
2022-12-29T14:32:27.025Z,42.35
2022-12-29T14:34:56.351Z,43.65
2022-12-29T14:37:35.466Z,49.65
2022-12-29T14:40:15.266Z,49.28
2022-12-29T14:42:43.337Z,45.30
2022-12-29T14:45:16.486Z,45.20
2022-12-29T14:47:52.206Z,46.28
2022-12-29T14:50:24.117Z,44.05
2022-12-29T14:53:02.370Z,49.60
2022-12-29T14:55:54.793Z,55.10
2022-12-29T14:58:29.566Z,52.17
2022-12-29T15:00:57.542Z,48.80
2022-12-29T15:03:30.044Z,47.33
2022-12-29T15:06:09.519Z,49.03
2022-12-29T15:08:55.434Z,46.55
2022-12-29T15:11:42.171Z,54.22
2022-12-29T15:14:32.159Z,50.90
2022-12-29T15:17:00.372Z,48.80
2022-12-29T15:19:28.765Z,51.90
2022-12-29T15:21:57.173Z,52.35
2022-12-29T15:24:25.027Z,54.13
2022-12-29T15:26:54.803Z,53.90
2022-12-29T15:29:33.827Z,54.77
2022-12-29T15:32:11.735Z,55.25
2022-12-29T15:34:39.209Z,53.88
2022-12-29T15:37:08.309Z,54.83
2022-12-29T15:39:36.517Z,53.78
2022-12-29T15:42:28.708Z,53.58
2022-12-29T15:45:09.352Z,52.50
2022-12-29T15:47:37.711Z,54.00
2022-12-29T15:50:10.048Z,54.17
2022-12-29T15:52:40.544Z,52.17
2022-12-29T15:55:34.130Z,52.30
2022-12-29T15:58:04.029Z,51.95
2022-12-29T16:00:38.435Z,54.55
2022-12-29T16:03:13.783Z,54.65
2022-12-29T16:05:41.759Z,54.67
2022-12-29T16:08:33.753Z,56.35
2022-12-29T16:11:03.945Z,56.75
2022-12-29T16:13:40.479Z,56.00
2022-12-29T16:16:19.192Z,59.00
2022-12-29T16:18:50.455Z,53.50
2022-12-29T16:21:28.629Z,57.13
2022-12-29T16:24:01.054Z,54.95
2022-12-29T16:26:28.630Z,54.20
2022-12-29T16:29:01.759Z,59.13
2022-12-29T16:32:04.218Z,63.30
2022-12-29T16:34:45.234Z,54.15
2022-12-29T16:37:34.003Z,51.53
2022-12-29T16:40:20.582Z,55.60
2022-12-29T16:42:52.243Z,56.40
2022-12-29T16:45:19.977Z,58.83
2022-12-29T16:48:06.082Z,58.00
2022-12-29T16:50:36.200Z,64.97
2022-12-29T16:53:05.338Z,59.35
2022-12-29T16:55:33.618Z,59.30
2022-12-29T16:58:01.884Z,52.75
2022-12-29T17:00:35.583Z,47.55
2022-12-29T17:03:04.420Z,47.60
2022-12-29T17:05:31.945Z,55.47
2022-12-29T17:08:02.033Z,53.80
2022-12-29T17:10:48.346Z,53.03
2022-12-29T17:13:15.746Z,56.17
2022-12-29T17:15:43.234Z,56.45
2022-12-29T17:18:14.137Z,58.65
2022-12-29T17:20:42.332Z,58.30
2022-12-29T17:23:21.123Z,56.22
2022-12-29T17:25:53.114Z,54.13
2022-12-29T17:28:22.383Z,59.55
2022-12-29T17:30:50.414Z,55.78
2022-12-29T17:33:19.949Z,57.13
2022-12-29T17:35:54.978Z,55.80
2022-12-29T17:38:35.938Z,56.43
2022-12-29T17:41:03.738Z,56.85
2022-12-29T17:43:36.696Z,59.75
2022-12-29T17:46:06.214Z,61.33
2022-12-29T17:48:33.636Z,58.25
2022-12-29T17:51:01.073Z,62.03
2022-12-29T17:53:30.453Z,55.88
2022-12-29T17:55:57.916Z,63.03
2022-12-29T17:58:29.895Z,52.90
2022-12-29T18:01:02.111Z,56.00
2022-12-29T18:03:35.478Z,57.80
2022-12-29T18:06:06.516Z,57.47
2022-12-29T18:08:38.751Z,60.67
2022-12-29T18:11:20.254Z,69.30
2022-12-29T18:13:47.576Z,67.57
2022-12-29T18:16:15.237Z,68.85
2022-12-29T18:18:42.882Z,66.40
2022-12-29T18:21:19.221Z,66.22
2022-12-29T18:23:47.833Z,68.60
2022-12-29T18:26:27.998Z,71.65
2022-12-29T18:28:57.329Z,70.70
2022-12-29T18:31:30.078Z,69.45
2022-12-29T18:33:59.854Z,68.50
2022-12-29T18:36:27.892Z,66.35
2022-12-29T18:38:55.678Z,62.00
2022-12-29T18:41:25.932Z,70.60
2022-12-29T18:43:53.474Z,72.05
2022-12-29T18:46:23.426Z,78.45
2022-12-29T18:48:52.369Z,70.57
2022-12-29T18:51:26.010Z,69.18
2022-12-29T18:53:54.408Z,68.93
2022-12-29T18:56:23.928Z,61.90
2022-12-29T18:58:53.480Z,66.68
2022-12-29T19:01:23.369Z,69.88
2022-12-29T19:03:51.656Z,61.22
2022-12-29T19:06:20.818Z,64.50
2022-12-29T19:08:48.255Z,59.13
2022-12-29T19:11:15.704Z,63.08
2022-12-29T19:13:44.982Z,60.20
2022-12-29T19:16:20.736Z,71.75
2022-12-29T19:18:58.587Z,70.57
2022-12-29T19:21:31.414Z,59.63
2022-12-29T19:23:58.688Z,67.45
2022-12-29T19:26:36.119Z,63.45
2022-12-29T19:29:05.475Z,63.78
2022-12-29T19:31:33.010Z,64.30
2022-12-29T19:34:02.897Z,66.55
2022-12-29T19:36:30.671Z,63.40
2022-12-29T19:38:58.227Z,61.22
2022-12-29T19:41:25.744Z,62.30
2022-12-29T19:43:53.449Z,59.05
2022-12-29T19:46:21.454Z,60.35
2022-12-29T19:48:49.171Z,56.78
2022-12-29T19:51:17.307Z,56.97
2022-12-29T19:53:47.831Z,58.72
2022-12-29T19:56:15.228Z,61.30
2022-12-29T19:58:46.896Z,63.72
2022-12-29T20:01:17.869Z,61.27
2022-12-29T20:03:45.531Z,63.80
2022-12-29T20:06:13.591Z,69.20
2022-12-29T20:08:41.511Z,63.33
2022-12-29T20:11:15.263Z,58.35
2022-12-29T20:13:43.810Z,60.35
2022-12-29T20:16:19.372Z,67.90
2022-12-29T20:18:48.213Z,61.30
2022-12-29T20:21:22.236Z,61.85
2022-12-29T20:23:51.266Z,62.53
2022-12-29T20:26:24.752Z,67.37
2022-12-29T20:28:52.826Z,65.10
2022-12-29T20:31:22.915Z,71.60
2022-12-29T20:33:50.643Z,63.03
2022-12-29T20:36:22.494Z,62.20
2022-12-29T20:38:51.088Z,67.53
2022-12-29T20:41:19.107Z,64.60
2022-12-29T20:43:46.523Z,61.65
2022-12-29T20:46:20.865Z,65.15
2022-12-29T20:48:49.301Z,71.22
2022-12-29T20:51:17.162Z,68.68
2022-12-29T20:53:45.662Z,71.20
2022-12-29T20:56:21.620Z,62.47
2022-12-29T20:59:25.696Z,63.10
2022-12-29T21:01:37.491Z,61.67
2022-12-29T21:04:05.682Z,57.88
2022-12-29T21:06:34.043Z,61.30
2022-12-29T21:09:01.416Z,61.78
2022-12-29T21:11:28.895Z,61.75
2022-12-29T21:14:00.753Z,63.55
2022-12-29T21:16:29.078Z,61.78
2022-12-29T21:18:56.694Z,58.22
2022-12-29T21:21:25.898Z,58.15
2022-12-29T21:23:54.881Z,55.95
2022-12-29T21:26:23.956Z,51.90
2022-12-29T21:28:52.578Z,52.97
2022-12-29T21:31:33.284Z,48.97
2022-12-29T21:34:01.958Z,53.50
2022-12-29T21:36:29.773Z,53.78
2022-12-29T21:38:58.422Z,47.97
2022-12-29T21:41:26.568Z,49.75
2022-12-29T21:44:12.661Z,50.58
2022-12-29T21:46:42.065Z,50.23
2022-12-29T21:49:09.523Z,46.60
2022-12-29T21:51:52.374Z,45.80
2022-12-29T21:54:45.042Z,53.22
2022-12-29T21:57:34.292Z,51.33
2022-12-29T22:00:20.243Z,43.65
2022-12-29T22:03:06.085Z,46.63
2022-12-29T22:05:52.244Z,43.22
2022-12-29T22:08:38.286Z,45.03
2022-12-29T22:11:28.251Z,44.55
2022-12-29T22:13:56.411Z,46.20
2022-12-29T22:16:25.241Z,40.42
2022-12-29T22:18:52.990Z,40.70
2022-12-29T22:21:20.417Z,39.90
2022-12-29T22:23:47.811Z,40.00
2022-12-29T22:26:15.937Z,38.27
2022-12-29T22:28:46.030Z,38.87
2022-12-29T22:31:30.706Z,39.70
2022-12-29T22:34:00.098Z,38.42
2022-12-29T22:36:28.526Z,38.85
2022-12-29T22:38:55.921Z,38.17
2022-12-29T22:41:24.186Z,40.05
2022-12-29T22:43:51.813Z,35.28
2022-12-29T22:46:19.847Z,39.00
2022-12-29T22:48:47.368Z,39.85
2022-12-29T22:51:14.746Z,37.40
2022-12-29T22:53:42.136Z,34.78
2022-12-29T22:56:12.101Z,39.30
2022-12-29T22:58:41.116Z,36.38
2022-12-29T23:01:09.136Z,39.30
2022-12-29T23:03:37.217Z,39.30
2022-12-29T23:06:06.322Z,40.13
2022-12-29T23:08:36.726Z,37.63
2022-12-29T23:11:06.347Z,40.20
2022-12-29T23:13:34.697Z,39.50
2022-12-29T23:16:02.446Z,37.45
2022-12-29T23:18:30.270Z,37.67
2022-12-29T23:20:57.752Z,36.40
2022-12-29T23:23:48.958Z,35.45
2022-12-29T23:26:18.492Z,39.78
2022-12-29T23:28:46.131Z,37.53
2022-12-29T23:31:14.309Z,37.20
2022-12-29T23:33:42.113Z,34.83
2022-12-29T23:36:10.019Z,39.92
2022-12-29T23:38:37.389Z,36.88
2022-12-29T23:41:05.506Z,38.45
2022-12-29T23:43:33.374Z,33.95
2022-12-29T23:46:12.528Z,35.30
2022-12-29T23:48:40.348Z,34.03
2022-12-29T23:51:08.526Z,36.05
2022-12-29T23:53:38.181Z,38.40
2022-12-29T23:56:07.548Z,34.90
2022-12-29T23:58:35.948Z,38.50
